Portada
METAR-TAF:

METAR-TAF

Aeroports :

Keene, Nova Hampshire, Estats Units d'Amèrica

latitud: 42-54N, longitud: 072-16W, altitud: 149 m

Observació

L'informe es va fer fa 42 minuts, a les 00:56 UTC
Vent 8 kt del Oest/Sud-Oest
Temperatura -6°C
Humitat 38%
Pressió 1015 hPa
Visibilitat: 16.1 km
Cel clar

METAR: KEEN 030056Z AUTO 25008KT 10SM CLR M06/M18 A2998 RMK AO2 SLP167 T10611183 FZRANO $

Hora: 20:38 (01:38 UTC)


TAF: manca

Observacions i pronòstics meteorològics de més de 4000 aeroports (METAR i TAF).

Les estacions disponibles són els punts grocs i vermells al mapa.

Posi el ratolí al punt desitjat per veure el nom de l'estació.

Feu clic per veure les observacions i els pronòstics meteorològics.

Per canviar el mapa: feu clic els botons verds amb una creu de color negre per apropar; al botó verd amb un guió per allunyar la imatge; o en les fletxes verdes per a mapes adjacents.


METAR-TAF: